createdAt,value
2023-08-07T00:07:42.195Z,21.94
2023-08-07T00:17:46.653Z,21.81
2023-08-07T00:27:49.731Z,21.70
2023-08-07T00:37:54.384Z,21.58
2023-08-07T00:47:57.695Z,21.44
2023-08-07T00:58:07.440Z,21.34
2023-08-07T01:08:41.801Z,21.22
2023-08-07T01:18:56.224Z,21.12
2023-08-07T01:29:07.966Z,21.02
2023-08-07T01:39:12.195Z,20.93
2023-08-07T01:49:16.614Z,20.85
2023-08-07T01:59:19.535Z,20.78
2023-08-07T02:09:24.738Z,20.70
2023-08-07T02:19:27.685Z,20.63
2023-08-07T02:29:35.320Z,20.56
2023-08-07T02:39:49.073Z,20.72
2023-08-07T02:49:55.321Z,20.98
2023-08-07T03:00:00.282Z,21.32
2023-08-07T03:10:43.730Z,21.71
2023-08-07T03:42:02.001Z,22.92
2023-08-07T03:52:08.222Z,23.26
2023-08-07T04:02:14.786Z,23.67
2023-08-07T04:12:18.030Z,24.08
2023-08-07T04:22:22.431Z,24.51
2023-08-07T04:32:26.765Z,24.96
2023-08-07T04:42:31.427Z,25.38
2023-08-07T04:52:34.318Z,25.84
2023-08-07T05:02:38.848Z,26.30
2023-08-07T05:12:41.901Z,26.73
2023-08-07T05:22:53.841Z,27.14
2023-08-07T05:32:56.977Z,27.57
2023-08-07T05:43:01.041Z,27.99
2023-08-07T05:53:03.830Z,28.46
2023-08-07T06:03:08.356Z,28.76
2023-08-07T06:13:19.897Z,29.01
2023-08-07T06:23:30.943Z,29.25
2023-08-07T06:33:36.726Z,29.44
2023-08-07T06:43:41.060Z,29.60
2023-08-07T06:53:46.953Z,29.69
2023-08-07T07:03:54.194Z,29.77
2023-08-07T07:13:57.298Z,29.83
2023-08-07T07:24:05.218Z,29.87
2023-08-07T07:34:08.200Z,29.92
2023-08-07T07:44:14.901Z,29.95
2023-08-07T07:54:17.977Z,29.94
2023-08-07T08:04:24.363Z,29.94
2023-08-07T08:14:33.331Z,29.88
2023-08-07T08:24:44.785Z,29.82
2023-08-07T08:34:51.462Z,29.82
2023-08-07T08:45:03.618Z,29.77
2023-08-07T08:55:07.947Z,29.76
2023-08-07T09:05:17.078Z,29.77
2023-08-07T09:15:21.196Z,29.77
2023-08-07T09:25:32.405Z,29.73
2023-08-07T09:35:35.817Z,29.68
2023-08-07T09:45:43.527Z,29.65
2023-08-07T09:55:52.636Z,29.67
2023-08-07T10:05:57.628Z,29.68
2023-08-07T10:16:04.826Z,29.64
2023-08-07T10:26:15.962Z,29.67
2023-08-07T10:36:21.741Z,29.70
2023-08-07T10:46:26.705Z,29.73
2023-08-07T10:56:34.594Z,29.76
2023-08-07T11:06:40.597Z,29.77
2023-08-07T11:16:44.561Z,29.79
2023-08-07T11:26:49.379Z,29.80
2023-08-07T11:37:04.668Z,29.81
2023-08-07T11:47:12.767Z,29.85
2023-08-07T11:57:21.764Z,29.83
2023-08-07T12:07:29.188Z,29.84
2023-08-07T12:17:36.401Z,29.85
2023-08-07T12:27:43.518Z,29.86
2023-08-07T12:37:48.261Z,29.86
2023-08-07T12:47:55.548Z,29.86
2023-08-07T12:58:00.044Z,29.87
2023-08-07T13:08:04.768Z,29.80
2023-08-07T13:18:07.956Z,29.76
2023-08-07T13:28:12.535Z,29.72
2023-08-07T13:38:16.513Z,29.66
2023-08-07T13:48:28.078Z,29.65
2023-08-07T13:58:33.778Z,29.62
2023-08-07T14:08:38.862Z,29.56
2023-08-07T14:18:42.193Z,29.55
2023-08-07T14:28:53.538Z,29.52
2023-08-07T14:38:58.393Z,29.48
2023-08-07T14:49:06.229Z,29.43
2023-08-07T14:59:12.804Z,29.37
2023-08-07T15:09:18.629Z,29.31
2023-08-07T15:19:24.200Z,29.22
2023-08-07T15:29:32.710Z,29.12
2023-08-07T15:39:35.847Z,28.99
2023-08-07T15:49:40.148Z,28.85
2023-08-07T15:59:44.745Z,28.74
2023-08-07T16:09:51.066Z,28.63
2023-08-07T16:19:54.012Z,28.50
2023-08-07T16:30:04.928Z,28.37
2023-08-07T16:40:09.526Z,28.22
2023-08-07T16:50:14.130Z,28.05
2023-08-07T17:00:20.200Z,27.90
2023-08-07T17:10:24.490Z,27.70
2023-08-07T17:20:29.241Z,27.51
2023-08-07T17:30:36.808Z,27.32
2023-08-07T17:40:39.944Z,27.14
2023-08-07T17:50:45.036Z,26.93
2023-08-07T18:00:51.986Z,26.70
2023-08-07T18:11:03.433Z,26.51
2023-08-07T18:21:06.396Z,26.30
2023-08-07T18:31:13.658Z,26.11
2023-08-07T18:41:19.364Z,25.89
2023-08-07T18:51:26.731Z,25.70
2023-08-07T19:01:32.413Z,25.48
2023-08-07T19:11:37.005Z,25.25
2023-08-07T19:21:40.432Z,25.05
2023-08-07T19:31:49.109Z,24.83
2023-08-07T19:41:54.616Z,24.64
2023-08-07T19:52:04.576Z,24.46
2023-08-07T20:02:09.017Z,24.30
2023-08-07T20:12:18.608Z,24.11
2023-08-07T20:22:24.540Z,23.97
2023-08-07T20:32:30.349Z,23.83
2023-08-07T20:42:36.672Z,23.66
2023-08-07T20:52:41.294Z,23.50
2023-08-07T21:02:44.752Z,23.37
2023-08-07T21:12:49.438Z,23.23
2023-08-07T21:22:52.657Z,23.09
2023-08-07T21:32:57.114Z,22.95
2023-08-07T21:43:10.224Z,22.83
2023-08-07T21:53:14.576Z,22.67
2023-08-07T22:03:19.947Z,22.53
2023-08-07T22:13:25.245Z,22.38
2023-08-07T22:23:33.754Z,22.23
2023-08-07T22:33:40.832Z,22.07
2023-08-07T22:43:44.228Z,21.92
2023-08-07T22:53:48.857Z,21.77
2023-08-07T23:03:52.060Z,21.58
2023-08-07T23:13:56.847Z,21.42
2023-08-07T23:24:00.006Z,21.27
2023-08-07T23:34:05.826Z,21.12
2023-08-07T23:44:08.741Z,21.00
2023-08-07T23:54:14.584Z,20.89
